Time;durP1;ratioP1;P1;durP2;ratioP2;P2;SDS_P1;SDS_P2;PMS_P1;PMS_P2;Temp;Humidity;BMP_temperature;BMP_pressure;BME280_temperature;BME280_humidity;BME280_pressure;Samples;Min_cycle;Max_cycle;Signal;HPM_P1;HPM_P2
2022/09/22 00:01:06;;;;;;;7.63;2.83;;;9.60;99.90;;;;;;5082109;28;20040;-86
2022/09/22 00:03:37;;;;;;;5.72;2.47;;;9.60;99.90;;;;;;5059636;28;20102;-86
2022/09/22 00:06:10;;;;;;;3.97;2.45;;;8.90;99.90;;;;;;5077263;28;20075;-86
2022/09/22 00:08:39;;;;;;;6.82;2.80;;;8.90;99.90;;;;;;5074684;28;20077;-87
2022/09/22 00:11:15;;;;;;;4.13;2.65;;;9.20;99.90;;;;;;5077738;28;20443;-87
2022/09/22 00:14:02;;;;;;;4.10;2.55;;;8.90;99.90;;;;;;5062835;28;20032;-87
2022/09/22 00:16:38;;;;;;;3.95;2.30;;;8.80;99.90;;;;;;5108053;28;20071;-86
2022/09/22 00:19:13;;;;;;;5.07;2.30;;;8.80;99.90;;;;;;5057992;28;20044;-86
2022/09/22 00:21:39;;;;;;;2.90;2.10;;;8.80;99.90;;;;;;5062166;28;20713;-86
2022/09/22 00:24:06;;;;;;;4.65;2.10;;;8.70;99.90;;;;;;5060129;28;20131;-86
2022/09/22 00:26:34;;;;;;;3.38;2.20;;;8.60;99.90;;;;;;5059701;28;20060;-86
2022/09/22 00:29:00;;;;;;;3.95;1.95;;;8.60;99.90;;;;;;5075948;28;20123;-86
2022/09/22 00:31:27;;;;;;;5.38;2.33;;;8.60;99.90;;;;;;5077214;28;20040;-85
2022/09/22 00:33:54;;;;;;;4.28;2.38;;;8.60;99.90;;;;;;5058081;28;20047;-87
2022/09/22 00:36:22;;;;;;;5.00;2.22;;;8.60;99.90;;;;;;5092218;28;20047;-85
2022/09/22 00:38:50;;;;;;;4.85;2.20;;;9.50;99.90;;;;;;5061952;28;20066;-85
2022/09/22 00:41:19;;;;;;;5.15;2.28;;;8.60;99.90;;;;;;5044892;28;20080;-86
2022/09/22 00:43:50;;;;;;;6.10;2.42;;;8.70;99.90;;;;;;5072071;28;20047;-86
2022/09/22 00:46:25;;;;;;;3.83;2.25;;;8.50;99.90;;;;;;5065720;28;20129;-87
2022/09/22 00:48:58;;;;;;;3.83;2.45;;;8.50;99.90;;;;;;5080053;28;20040;-86
2022/09/22 00:51:29;;;;;;;4.43;2.40;;;8.50;99.90;;;;;;5076280;28;20053;-86
2022/09/22 00:53:57;;;;;;;4.07;2.30;;;8.50;99.90;;;;;;5059054;28;20090;-86
2022/09/22 00:56:38;;;;;;;4.90;2.40;;;8.40;99.90;;;;;;5060506;28;20066;-86
2022/09/22 00:59:10;;;;;;;5.70;2.72;;;8.40;99.90;;;;;;5045915;28;20435;-86
2022/09/22 01:01:39;;;;;;;4.78;2.50;;;8.40;99.90;;;;;;5072981;28;20080;-86
2022/09/22 01:04:06;;;;;;;4.80;2.50;;;8.40;99.90;;;;;;5070938;28;20036;-86
2022/09/22 01:06:33;;;;;;;6.22;2.45;;;8.40;99.90;;;;;;5044230;28;20123;-86
2022/09/22 01:09:00;;;;;;;3.67;2.45;;;8.40;99.90;;;;;;5039264;28;20052;-86
2022/09/22 01:11:28;;;;;;;5.10;2.05;;;9.10;99.90;;;;;;5055759;28;20444;-86
2022/09/22 01:14:24;;;;;;;5.57;2.40;;;8.30;99.90;;;;;;5075659;28;20098;-86
2022/09/22 01:17:02;;;;;;;4.30;2.40;;;8.30;99.90;;;;;;5074205;28;20036;-86
2022/09/22 01:19:59;;;;;;;5.75;2.55;;;8.30;99.90;;;;;;5051907;28;20032;-86
2022/09/22 01:22:52;;;;;;;4.07;2.63;;;8.20;99.90;;;;;;5089279;28;20500;-85
2022/09/22 01:25:21;;;;;;;9.45;2.70;;;8.20;99.90;;;;;;5069071;28;20439;-87
2022/09/22 01:27:59;;;;;;;3.50;2.22;;;8.20;99.90;;;;;;5074609;28;20040;-86
2022/09/22 01:30:30;;;;;;;5.57;3.03;;;8.20;99.90;;;;;;5090991;28;20082;-86
2022/09/22 01:33:28;;;;;;;3.50;2.28;;;8.10;99.90;;;;;;5060335;28;20040;-86
2022/09/22 01:36:20;;;;;;;3.53;2.08;;;8.10;99.90;;;;;;5073844;28;20062;-86
2022/09/22 01:39:14;;;;;;;5.55;2.65;;;8.10;99.90;;;;;;5060716;28;20084;-86
2022/09/22 01:42:12;;;;;;;3.25;2.05;;;8.10;99.90;;;;;;5069260;28;20040;-86
2022/09/22 01:45:04;;;;;;;5.25;2.20;;;8.10;99.90;;;;;;5054767;28;20047;-86
2022/09/22 01:47:41;;;;;;;4.63;2.60;;;8.00;99.90;;;;;;5033105;28;20040;-86
2022/09/22 01:50:17;;;;;;;2.70;2.03;;;8.00;99.90;;;;;;5075910;28;20082;-86
2022/09/22 01:52:43;;;;;;;4.05;2.25;;;8.00;99.90;;;;;;5082084;28;20048;-86
2022/09/22 01:55:29;;;;;;;3.67;2.20;;;7.90;99.90;;;;;;5082470;28;20040;-86
2022/09/22 01:58:00;;;;;;;2.85;2.25;;;7.90;99.90;;;;;;5055435;28;20126;-86
2022/09/22 02:00:27;;;;;;;3.55;2.00;;;8.40;99.90;;;;;;5064983;28;20043;-86
2022/09/22 02:03:05;;;;;;;3.30;2.10;;;8.40;99.90;;;;;;5069104;28;20039;-86
2022/09/22 02:05:39;;;;;;;4.60;2.30;;;8.00;99.90;;;;;;5082410;28;20034;-85
2022/09/22 02:08:12;;;;;;;2.35;1.85;;;7.80;99.90;;;;;;5099544;28;20047;-85
2022/09/22 02:10:43;;;;;;;4.57;2.50;;;7.80;99.90;;;;;;5100157;28;20067;-86
2022/09/22 02:13:09;;;;;;;4.78;2.97;;;8.10;99.90;;;;;;5094840;28;20057;-86
2022/09/22 02:18:53;;;;;;;4.03;2.10;;;8.60;99.90;;;;;;5014007;28;20442;-86
2022/09/22 02:21:20;;;;;;;3.88;2.20;;;7.70;99.90;;;;;;5021858;28;20037;-86
2022/09/22 02:23:47;;;;;;;3.50;2.22;;;8.60;99.90;;;;;;5049338;28;20043;-85
2022/09/22 02:26:22;;;;;;;3.92;2.40;;;7.70;99.90;;;;;;5066216;28;20093;-86
2022/09/22 02:28:54;;;;;;;6.63;2.58;;;7.70;99.90;;;;;;5091247;28;20031;-86
2022/09/22 02:31:27;;;;;;;4.20;2.30;;;7.60;99.90;;;;;;5072641;28;20033;-86
2022/09/22 02:33:54;;;;;;;5.88;3.15;;;7.70;99.90;;;;;;5068490;28;20036;-86
2022/09/22 02:36:38;;;;;;;4.45;3.00;;;8.10;99.90;;;;;;5063838;28;20036;-85
2022/09/22 02:39:04;;;;;;;4.90;3.03;;;7.60;99.90;;;;;;5075711;28;20059;-86
2022/09/22 02:42:00;;;;;;;3.63;2.70;;;8.40;99.90;;;;;;5080484;28;20055;-86
2022/09/22 02:44:37;;;;;;;5.80;3.22;;;7.50;99.90;;;;;;5074159;28;20392;-86
2022/09/22 02:47:11;;;;;;;5.68;3.67;;;7.50;99.90;;;;;;5076342;28;20039;-86
2022/09/22 02:49:37;;;;;;;4.60;3.00;;;7.50;99.90;;;;;;5056110;28;20404;-86
2022/09/22 02:52:09;;;;;;;8.02;3.00;;;7.50;99.90;;;;;;5064260;28;20036;-86
2022/09/22 02:54:36;;;;;;;4.68;2.97;;;7.50;99.90;;;;;;5081337;28;20072;-86
2022/09/22 02:57:01;;;;;;;4.15;2.67;;;7.50;99.90;;;;;;5061490;28;20476;-86
2022/09/22 02:59:27;;;;;;;2.92;2.47;;;7.50;99.90;;;;;;5066908;28;20032;-85
2022/09/22 03:01:54;;;;;;;5.10;2.72;;;7.40;99.90;;;;;;5057106;28;20040;-86
2022/09/22 03:04:20;;;;;;;4.95;2.75;;;7.50;99.90;;;;;;5026472;28;20032;-87
2022/09/22 03:06:45;;;;;;;4.13;2.30;;;7.40;99.90;;;;;;5040926;28;20605;-86
2022/09/22 03:09:11;;;;;;;3.60;2.45;;;8.50;99.90;;;;;;5059083;28;20036;-86
2022/09/22 03:11:37;;;;;;;6.47;2.80;;;7.50;99.90;;;;;;5046917;28;20093;-86
2022/09/22 03:14:02;;;;;;;5.72;2.95;;;7.50;99.90;;;;;;5044946;28;20067;-86
2022/09/22 03:16:28;;;;;;;4.15;2.30;;;7.30;99.90;;;;;;5063656;28;20044;-86
2022/09/22 03:18:56;;;;;;;5.10;2.40;;;7.30;99.90;;;;;;5059990;28;20040;-86
2022/09/22 03:21:21;;;;;;;4.50;2.15;;;7.90;99.90;;;;;;5047256;28;20078;-86
2022/09/22 03:23:47;;;;;;;4.32;2.30;;;7.30;99.90;;;;;;5073551;28;20472;-86
2022/09/22 03:26:13;;;;;;;3.53;2.50;;;7.20;99.90;;;;;;5052287;28;20043;-86
2022/09/22 03:28:39;;;;;;;3.80;2.40;;;7.30;99.90;;;;;;5041034;28;20385;-86
2022/09/22 03:31:04;;;;;;;2.55;2.15;;;7.30;99.90;;;;;;5027612;28;20040;-86
2022/09/22 03:33:30;;;;;;;2.85;2.05;;;7.20;99.90;;;;;;5060927;28;20392;-87
2022/09/22 03:35:56;;;;;;;3.20;2.65;;;7.20;99.90;;;;;;5080580;28;20480;-86
2022/09/22 03:38:21;;;;;;;4.35;2.80;;;7.10;99.90;;;;;;5060711;28;20032;-86
2022/09/22 03:40:52;;;;;;;3.72;2.50;;;7.10;99.90;;;;;;5056022;28;20051;-86
2022/09/22 03:43:18;;;;;;;4.38;2.22;;;7.40;99.90;;;;;;5043345;28;20067;-85
2022/09/22 03:45:44;;;;;;;4.75;2.40;;;7.10;99.90;;;;;;5074649;28;20036;-85
2022/09/22 03:48:10;;;;;;;3.55;2.50;;;7.10;99.90;;;;;;5064077;28;20107;-85
2022/09/22 03:50:36;;;;;;;3.40;2.58;;;7.90;99.90;;;;;;5049537;28;20506;-86
2022/09/22 03:53:01;;;;;;;4.75;2.70;;;7.00;99.90;;;;;;5039379;28;20075;-85
2022/09/22 03:55:27;;;;;;;4.65;3.17;;;7.00;99.90;;;;;;5058631;28;20045;-84
2022/09/22 03:57:53;;;;;;;4.25;2.92;;;7.00;99.90;;;;;;5062965;28;20036;-85
2022/09/22 04:00:18;;;;;;;4.40;3.00;;;6.90;99.90;;;;;;5027738;28;20477;-84
2022/09/22 04:02:44;;;;;;;5.00;3.17;;;7.20;99.90;;;;;;5077159;28;20500;-85
2022/09/22 04:05:10;;;;;;;4.78;2.88;;;6.90;99.90;;;;;;5071466;28;20067;-84
2022/09/22 04:07:35;;;;;;;3.22;2.72;;;7.90;99.90;;;;;;5038418;28;20663;-85
2022/09/22 04:10:02;;;;;;;5.40;3.03;;;7.80;99.90;;;;;;5054719;28;20040;-83
2022/09/22 04:12:28;;;;;;;5.53;3.38;;;6.80;99.90;;;;;;5045985;28;20507;-83
2022/09/22 04:14:54;;;;;;;4.53;3.42;;;6.90;99.90;;;;;;5061000;28;20036;-83
2022/09/22 04:17:20;;;;;;;5.47;3.70;;;6.80;99.90;;;;;;5043700;28;20032;-85
2022/09/22 04:19:46;;;;;;;5.70;3.38;;;6.80;99.90;;;;;;5063228;28;20115;-85
2022/09/22 04:22:12;;;;;;;6.22;3.60;;;6.80;99.90;;;;;;5078801;28;20109;-86
2022/09/22 04:24:38;;;;;;;6.57;3.55;;;6.80;99.90;;;;;;5073739;28;20036;-86
2022/09/22 04:27:04;;;;;;;7.47;3.85;;;6.70;99.90;;;;;;5060262;28;20032;-86
2022/09/22 04:29:29;;;;;;;7.25;3.50;;;6.80;99.90;;;;;;5043050;28;20114;-86
2022/09/22 04:31:55;;;;;;;6.95;4.13;;;6.80;99.90;;;;;;5062077;28;20043;-85
2022/09/22 04:34:21;;;;;;;5.97;3.70;;;6.80;99.90;;;;;;5058603;28;20070;-87
2022/09/22 04:36:46;;;;;;;5.10;3.25;;;7.40;99.90;;;;;;5052487;28;20115;-86
2022/09/22 04:39:12;;;;;;;5.72;3.60;;;6.70;99.90;;;;;;5057365;28;20044;-86
2022/09/22 04:41:38;;;;;;;5.47;3.83;;;6.70;99.90;;;;;;5046425;28;20501;-85
2022/09/22 04:44:04;;;;;;;6.25;3.83;;;6.70;99.90;;;;;;5036094;28;20040;-85
2022/09/22 04:46:29;;;;;;;6.50;4.28;;;6.70;99.90;;;;;;5063015;28;20130;-85
2022/09/22 04:48:55;;;;;;;6.40;4.30;;;6.70;99.90;;;;;;5065445;28;20071;-85
2022/09/22 04:51:21;;;;;;;8.30;4.88;;;7.10;99.90;;;;;;5044215;28;20044;-85
2022/09/22 04:53:47;;;;;;;5.57;4.45;;;7.00;99.90;;;;;;5042885;28;20046;-86
2022/09/22 04:56:12;;;;;;;7.20;4.90;;;6.60;99.90;;;;;;5059778;28;20040;-85
2022/09/22 04:58:38;;;;;;;6.38;5.13;;;6.70;99.90;;;;;;5060575;28;20035;-86
2022/09/22 05:01:05;;;;;;;9.13;5.10;;;6.60;99.90;;;;;;5053396;28;20059;-84
2022/09/22 05:03:32;;;;;;;7.18;4.93;;;6.60;99.90;;;;;;5055313;28;20063;-84
2022/09/22 05:05:57;;;;;;;6.28;4.68;;;6.60;99.90;;;;;;5077608;28;20161;-85
2022/09/22 05:08:23;;;;;;;6.35;5.10;;;6.50;99.90;;;;;;5044586;28;20150;-86
2022/09/22 05:10:50;;;;;;;9.98;5.28;;;6.60;99.90;;;;;;5075613;28;20044;-86
2022/09/22 05:13:15;;;;;;;8.13;5.20;;;6.50;99.90;;;;;;5031156;28;20502;-86
2022/09/22 05:15:41;;;;;;;7.07;5.03;;;6.50;99.90;;;;;;5065606;28;20183;-86
2022/09/22 05:18:07;;;;;;;7.15;5.03;;;7.60;99.90;;;;;;5042360;28;20111;-85
2022/09/22 05:20:33;;;;;;;7.60;5.05;;;6.80;99.90;;;;;;5079239;28;20070;-86
2022/09/22 05:22:59;;;;;;;8.20;5.43;;;6.70;99.90;;;;;;5062143;28;20068;-85
2022/09/22 05:25:24;;;;;;;7.93;5.20;;;6.70;99.90;;;;;;5083213;28;20040;-85
2022/09/22 05:27:54;;;;;;;8.55;5.80;;;6.50;99.90;;;;;;5027846;28;20043;-87
2022/09/22 05:30:23;;;;;;;6.40;5.25;;;6.50;99.90;;;;;;5070926;28;20496;-87
2022/09/22 05:32:49;;;;;;;9.32;5.43;;;6.50;99.90;;;;;;5061802;28;20500;-85
2022/09/22 05:35:21;;;;;;;8.77;6.03;;;6.50;99.90;;;;;;5078583;28;20036;-85
2022/09/22 05:37:48;;;;;;;9.40;6.00;;;6.50;99.90;;;;;;5064110;28;20111;-85
2022/09/22 05:40:14;;;;;;;7.30;5.50;;;6.50;99.90;;;;;;5068630;28;20060;-85
2022/09/22 05:42:48;;;;;;;10.00;5.70;;;6.50;99.90;;;;;;5045012;28;20119;-85
2022/09/22 05:45:15;;;;;;;8.25;5.47;;;6.50;99.90;;;;;;5080428;28;20036;-85
2022/09/22 05:47:41;;;;;;;7.15;4.95;;;6.40;99.90;;;;;;5061370;28;20124;-85
2022/09/22 05:50:08;;;;;;;6.70;5.13;;;6.50;99.90;;;;;;5079453;28;20067;-84
2022/09/22 05:52:34;;;;;;;6.35;4.88;;;6.50;99.90;;;;;;5074383;28;20041;-85
2022/09/22 05:55:00;;;;;;;6.63;4.65;;;7.70;99.90;;;;;;5076650;28;20040;-85
2022/09/22 05:57:26;;;;;;;6.22;5.10;;;6.60;99.90;;;;;;5027768;28;20025;-86
2022/09/22 05:59:53;;;;;;;8.00;5.03;;;6.50;99.90;;;;;;5072981;28;20036;-85
2022/09/22 06:02:19;;;;;;;13.50;9.48;;;6.50;99.90;;;;;;5059934;28;20040;-85
2022/09/22 06:04:45;;;;;;;21.23;17.17;;;6.50;99.90;;;;;;5047825;28;20051;-85
2022/09/22 06:07:11;;;;;;;18.75;14.43;;;7.60;99.90;;;;;;5065052;28;20039;-85
2022/09/22 06:09:37;;;;;;;10.73;8.55;;;6.50;99.90;;;;;;5068921;28;20044;-86
2022/09/22 06:12:03;;;;;;;12.65;9.38;;;7.20;99.90;;;;;;5065191;28;20050;-85
2022/09/22 06:14:29;;;;;;;10.43;7.55;;;6.60;99.90;;;;;;5060903;28;20064;-83
2022/09/22 06:16:55;;;;;;;8.98;6.57;;;7.40;99.90;;;;;;5065492;28;20034;-86
2022/09/22 06:19:22;;;;;;;8.02;6.38;;;6.60;99.90;;;;;;5082703;28;20075;-84
2022/09/22 06:21:49;;;;;;;10.07;6.25;;;6.60;99.90;;;;;;5064005;28;20043;-86
2022/09/22 06:24:15;;;;;;;7.10;5.82;;;6.90;99.90;;;;;;5079779;28;20109;-86
2022/09/22 06:26:41;;;;;;;8.27;6.10;;;6.80;99.90;;;;;;5074660;28;20094;-86
2022/09/22 06:29:07;;;;;;;6.82;5.70;;;7.00;99.90;;;;;;5082010;28;20489;-85
2022/09/22 06:31:33;;;;;;;8.98;5.88;;;6.80;99.90;;;;;;5073628;28;20075;-86
2022/09/22 06:33:58;;;;;;;10.93;6.70;;;6.80;99.90;;;;;;5070292;28;20373;-87
2022/09/22 06:36:30;;;;;;;9.43;6.40;;;6.90;99.90;;;;;;5070454;28;20036;-86
2022/09/22 06:39:00;;;;;;;10.60;6.18;;;6.90;99.90;;;;;;5063284;28;20404;-85
2022/09/22 06:41:29;;;;;;;10.00;6.40;;;7.00;99.90;;;;;;5096612;28;20048;-86
2022/09/22 06:43:54;;;;;;;9.45;6.47;;;8.10;99.90;;;;;;5079969;28;20044;-86
2022/09/22 06:46:25;;;;;;;8.88;6.93;;;7.10;99.90;;;;;;5064393;28;20074;-85
2022/09/22 06:48:56;;;;;;;9.75;7.05;;;7.10;99.90;;;;;;5075475;28;20119;-86
2022/09/22 06:51:31;;;;;;;10.13;7.35;;;7.20;99.90;;;;;;5091400;28;20522;-86
2022/09/22 06:53:58;;;;;;;8.98;7.22;;;7.20;99.90;;;;;;5071352;28;20036;-85
2022/09/22 06:56:26;;;;;;;10.65;7.32;;;7.30;99.90;;;;;;5081432;28;20040;-88
2022/09/22 06:58:54;;;;;;;9.73;7.40;;;7.30;99.90;;;;;;5081179;28;20036;-86
2022/09/22 07:01:22;;;;;;;10.88;8.27;;;7.40;99.90;;;;;;5069020;28;20044;-88
2022/09/22 07:03:48;;;;;;;10.23;8.35;;;7.50;99.90;;;;;;5044268;28;20036;-88
2022/09/22 07:06:16;;;;;;;10.23;8.30;;;7.50;99.90;;;;;;5049157;28;20097;-86
2022/09/22 07:08:47;;;;;;;12.45;9.38;;;7.60;99.90;;;;;;5067415;28;20040;-88
2022/09/22 07:11:18;;;;;;;9.40;8.38;;;7.60;99.90;;;;;;5059774;28;20043;-86
2022/09/22 07:13:44;;;;;;;10.63;8.73;;;7.70;99.90;;;;;;5061762;28;20028;-86
2022/09/22 07:16:16;;;;;;;12.85;9.63;;;7.80;99.90;;;;;;5046587;28;20044;-86
2022/09/22 07:18:57;;;;;;;12.80;9.52;;;7.90;99.90;;;;;;5075574;28;20480;-85
2022/09/22 07:21:26;;;;;;;13.43;9.45;;;7.90;99.90;;;;;;5049101;28;20066;-86
2022/09/22 07:23:56;;;;;;;12.15;9.93;;;8.00;99.90;;;;;;5076986;28;20055;-86
2022/09/22 07:26:31;;;;;;;11.40;10.25;;;8.40;99.90;;;;;;5067412;28;20040;-86
2022/09/22 07:29:02;;;;;;;13.18;10.68;;;8.20;99.90;;;;;;5042634;28;20120;-86
2022/09/22 07:31:30;;;;;;;12.57;10.57;;;8.20;99.90;;;;;;5061673;28;20043;-87
2022/09/22 07:33:59;;;;;;;13.80;11.27;;;9.10;99.90;;;;;;5069908;28;20093;-86
2022/09/22 07:36:26;;;;;;;15.52;10.75;;;8.40;99.90;;;;;;5085487;28;20050;-86
2022/09/22 07:38:53;;;;;;;14.07;10.85;;;8.50;99.90;;;;;;5045915;28;20366;-88
2022/09/22 07:41:22;;;;;;;14.98;10.82;;;8.70;99.90;;;;;;5052435;28;20072;-83
2022/09/22 07:43:51;;;;;;;15.40;10.65;;;8.70;99.90;;;;;;5060559;28;20054;-83
2022/09/22 07:46:17;;;;;;;14.68;9.98;;;8.80;99.90;;;;;;5046699;28;20052;-85
2022/09/22 07:48:46;;;;;;;14.27;10.60;;;8.90;99.90;;;;;;5040627;28;20493;-86
2022/09/22 07:51:18;;;;;;;12.35;11.10;;;8.90;99.90;;;;;;5056252;28;20037;-86
2022/09/22 07:53:49;;;;;;;12.52;10.23;;;9.10;99.90;;;;;;5038866;28;20067;-85
2022/09/22 07:56:17;;;;;;;13.38;9.93;;;9.10;99.90;;;;;;5045162;28;20040;-86
2022/09/22 07:58:48;;;;;;;10.70;9.32;;;9.30;99.90;;;;;;5039665;28;20480;-86
2022/09/22 08:01:15;;;;;;;13.85;8.65;;;9.40;99.90;;;;;;5035529;28;20044;-86
2022/09/22 08:03:41;;;;;;;10.82;9.30;;;9.50;99.90;;;;;;5012422;28;20055;-87
2022/09/22 08:06:10;;;;;;;11.98;9.35;;;9.50;99.90;;;;;;5036433;28;20044;-88
2022/09/22 08:08:45;;;;;;;14.80;10.00;;;9.70;99.90;;;;;;5053294;28;20125;-85
2022/09/22 08:11:18;;;;;;;12.50;9.35;;;9.70;99.90;;;;;;5011704;28;20068;-85
2022/09/22 08:13:49;;;;;;;12.65;9.45;;;9.80;99.90;;;;;;5065935;28;20084;-85
2022/09/22 08:16:17;;;;;;;11.82;8.88;;;9.90;99.90;;;;;;5036053;28;20040;-85
2022/09/22 08:18:43;;;;;;;10.35;7.85;;;10.00;99.90;;;;;;5035323;28;20125;-85
2022/09/22 08:21:09;;;;;;;11.05;7.93;;;10.10;99.90;;;;;;5048635;28;20079;-85
2022/09/22 08:23:36;;;;;;;13.05;8.25;;;10.20;99.90;;;;;;5018474;28;20127;-86
2022/09/22 08:26:04;;;;;;;10.73;8.73;;;10.20;99.90;;;;;;5059301;28;20045;-85
2022/09/22 08:28:30;;;;;;;11.52;7.50;;;10.30;99.90;;;;;;5038684;28;20049;-85
2022/09/22 08:30:57;;;;;;;15.52;7.95;;;10.40;99.90;;;;;;5050586;28;20044;-85
2022/09/22 08:33:25;;;;;;;12.68;7.18;;;10.50;99.90;;;;;;5035412;28;20037;-85
2022/09/22 08:35:53;;;;;;;11.15;6.93;;;10.50;99.90;;;;;;5024579;28;20048;-85
2022/09/22 08:38:20;;;;;;;8.70;6.72;;;10.60;99.90;;;;;;5039922;28;20051;-84
2022/09/22 08:40:58;;;;;;;9.57;7.45;;;10.70;99.90;;;;;;5054689;28;20041;-83
2022/09/22 08:43:24;;;;;;;8.40;6.30;;;10.70;99.90;;;;;;5076421;28;20079;-85
2022/09/22 08:45:51;;;;;;;15.52;6.97;;;10.80;99.90;;;;;;5042178;28;20139;-85
2022/09/22 08:54:03;;;;;;;9.52;5.65;;;11.00;99.90;;;;;;5060189;28;20040;-84
2022/09/22 08:56:37;;;;;;;10.73;5.13;;;11.10;99.90;;;;;;5069029;28;20505;-85
2022/09/22 08:59:12;;;;;;;7.07;5.40;;;11.20;99.90;;;;;;5077259;28;20040;-85
2022/09/22 09:01:50;;;;;;;5.93;4.80;;;11.50;99.90;;;;;;5060167;28;20024;-85
2022/09/22 09:04:54;;;;;;;8.45;5.00;;;11.40;99.90;;;;;;5071928;28;20046;-85
2022/09/22 09:08:02;;;;;;;8.02;5.05;;;11.40;99.90;;;;;;5052701;28;20048;-85
2022/09/22 09:10:31;;;;;;;9.90;5.50;;;11.50;99.90;;;;;;5071497;28;20040;-85
2022/09/22 09:13:05;;;;;;;12.27;6.38;;;11.60;99.90;;;;;;5068164;28;20040;-85
2022/09/22 09:15:40;;;;;;;8.20;5.88;;;11.70;99.90;;;;;;5070966;28;20047;-86
2022/09/22 09:18:15;;;;;;;9.07;5.63;;;11.80;99.90;;;;;;5068001;28;20037;-85
2022/09/22 09:20:46;;;;;;;8.52;6.00;;;11.80;99.90;;;;;;5059421;28;20052;-85
2022/09/22 09:23:16;;;;;;;7.53;5.50;;;11.90;99.90;;;;;;5074014;28;20122;-85
2022/09/22 09:25:45;;;;;;;7.57;5.95;;;11.90;99.90;;;;;;5058269;28;20098;-84
2022/09/22 09:28:18;;;;;;;6.75;5.45;;;12.00;99.90;;;;;;5076715;28;20425;-86
2022/09/22 09:30:52;;;;;;;11.48;5.18;;;12.10;99.90;;;;;;5071955;28;20128;-84
2022/09/22 09:33:32;;;;;;;10.43;5.50;;;12.20;99.90;;;;;;5072636;28;20037;-85
2022/09/22 09:35:58;;;;;;;8.73;5.40;;;12.30;99.90;;;;;;5074777;28;20040;-85
2022/09/22 09:38:34;;;;;;;7.90;5.28;;;12.40;99.90;;;;;;5058261;28;20044;-85
2022/09/22 09:41:07;;;;;;;;;;;12.50;99.90;;;;;;5046735;28;20040;-84
2022/09/22 09:43:34;;;;;;;6.65;4.38;;;12.60;99.90;;;;;;5054983;28;19977;-85
2022/09/22 09:46:06;;;;;;;8.50;4.35;;;12.60;99.90;;;;;;5039382;28;20388;-85
2022/09/22 09:49:01;;;;;;;6.70;4.30;;;12.70;99.90;;;;;;5037731;28;20056;-85
2022/09/22 09:51:27;;;;;;;6.65;4.05;;;12.90;99.90;;;;;;5034792;28;20040;-86
2022/09/22 09:53:56;;;;;;;6.78;4.40;;;12.90;99.90;;;;;;5034004;28;20037;-85
2022/09/22 09:56:24;;;;;;;9.27;4.50;;;13.00;99.90;;;;;;5029528;28;20033;-85
2022/09/22 10:01:45;;;;;;;7.85;4.45;;;13.20;99.90;;;;;;5067632;28;20041;-84
2022/09/22 10:04:35;;;;;;;10.27;4.63;;;13.30;99.90;;;;;;5054015;28;20067;-85
2022/09/22 10:07:25;;;;;;;6.57;3.92;;;13.30;99.90;;;;;;5037429;28;20044;-86
2022/09/22 10:09:52;;;;;;;9.85;4.00;;;13.60;99.90;;;;;;5051072;28;20068;-85
2022/09/22 10:12:30;;;;;;;6.25;3.92;;;14.00;99.90;;;;;;5045041;28;20045;-86
2022/09/22 10:15:00;;;;;;;5.63;3.17;;;14.20;99.90;;;;;;5053745;28;20110;-86
2022/09/22 10:17:37;;;;;;;8.77;4.13;;;14.30;99.90;;;;;;5051723;28;20047;-85
2022/09/22 10:20:30;;;;;;;7.25;3.78;;;14.30;99.90;;;;;;5037098;28;20064;-85
2022/09/22 10:23:19;;;;;;;6.82;2.97;;;14.30;99.90;;;;;;5057076;28;20059;-86
2022/09/22 10:25:45;;;;;;;5.47;2.70;;;14.30;99.90;;;;;;5072257;28;20097;-86
2022/09/22 10:28:17;;;;;;;5.97;3.00;;;14.20;99.90;;;;;;5055571;28;20037;-86
2022/09/22 10:30:56;;;;;;;4.93;2.85;;;14.20;99.90;;;;;;5037035;28;20041;-86
2022/09/22 10:33:22;;;;;;;7.05;2.47;;;14.20;99.90;;;;;;5047204;28;20033;-86
2022/09/22 10:36:09;;;;;;;5.07;2.20;;;14.20;99.90;;;;;;5052976;28;20037;-86
2022/09/22 10:38:42;;;;;;;4.60;2.50;;;14.20;99.90;;;;;;5037714;28;20047;-85
2022/09/22 10:41:12;;;;;;;7.70;2.10;;;14.20;99.90;;;;;;5052903;28;20045;-85
2022/09/22 10:43:50;;;;;;;4.28;2.25;;;14.20;99.90;;;;;;5069838;28;20047;-85
2022/09/22 10:46:41;;;;;;;6.03;2.70;;;14.20;99.90;;;;;;5072221;28;20653;-85
2022/09/22 10:49:12;;;;;;;5.18;2.60;;;14.20;99.90;;;;;;5052290;28;20044;-85
2022/09/22 10:51:56;;;;;;;6.45;2.58;;;14.20;99.90;;;;;;5078157;28;20064;-85
2022/09/22 10:54:56;;;;;;;7.60;2.70;;;14.40;99.90;;;;;;5077485;28;20123;-79
2022/09/22 10:57:53;;;;;;;6.70;2.75;;;14.50;99.90;;;;;;5028308;28;20051;-80
2022/09/22 11:00:21;;;;;;;5.88;2.47;;;14.60;99.90;;;;;;5051400;28;20499;-80
2022/09/22 11:03:21;;;;;;;5.53;2.38;;;14.60;99.90;;;;;;5076337;28;20063;-80
2022/09/22 11:12:30;;;;;;;5.45;2.25;;;14.70;99.90;;;;;;5075478;28;20094;-80
2022/09/22 11:15:02;;;;;;;4.50;2.00;;;14.70;99.90;;;;;;5076858;28;20032;-80
2022/09/22 11:17:46;;;;;;;4.78;2.42;;;14.70;99.90;;;;;;5089820;28;20032;-79
2022/09/22 11:20:21;;;;;;;6.47;2.72;;;14.80;99.90;;;;;;5076665;28;20078;-79
2022/09/22 11:23:05;;;;;;;4.30;2.53;;;14.80;99.90;;;;;;5075034;28;20044;-79
2022/09/22 11:25:55;;;;;;;5.38;2.92;;;14.90;99.90;;;;;;5050416;28;20039;-79
2022/09/22 11:28:50;;;;;;;4.45;2.83;;;14.90;99.90;;;;;;5060378;28;20031;-79
2022/09/22 11:31:27;;;;;;;8.57;3.10;;;15.00;99.90;;;;;;5075926;28;20453;-81
2022/09/22 11:34:26;;;;;;;10.63;4.20;;;15.10;99.90;;;;;;5056635;28;20036;-79
2022/09/22 11:37:29;;;;;;;6.25;3.00;;;15.20;99.90;;;;;;5045071;28;20119;-79
2022/09/22 11:40:34;;;;;;;7.22;3.28;;;15.30;99.90;;;;;;5065845;28;20086;-80
2022/09/22 11:43:10;;;;;;;6.35;2.97;;;15.40;99.90;;;;;;4975309;28;20130;-79
2022/09/22 11:45:47;;;;;;;6.28;2.83;;;15.40;99.90;;;;;;5047802;28;20055;-79
2022/09/22 11:48:51;;;;;;;5.40;3.58;;;15.50;99.90;;;;;;5056202;28;20039;-80
2022/09/22 11:51:28;;;;;;;8.13;3.38;;;15.50;99.90;;;;;;5074234;28;20626;-80
2022/09/22 11:54:14;;;;;;;7.50;3.08;;;15.70;99.90;;;;;;5076273;28;20032;-79
2022/09/22 11:56:47;;;;;;;7.40;2.90;;;15.70;99.90;;;;;;5057832;28;20043;-80
2022/09/22 11:59:34;;;;;;;7.10;3.40;;;15.80;99.90;;;;;;5067818;28;20036;-80
2022/09/22 12:02:03;;;;;;;7.45;2.83;;;15.80;99.90;;;;;;5040622;28;20049;-80
2022/09/22 12:04:39;;;;;;;7.60;2.38;;;15.90;99.90;;;;;;5059257;28;20132;-80
2022/09/22 12:07:15;;;;;;;6.35;2.42;;;16.00;99.90;;;;;;5060498;28;20047;-80
2022/09/22 12:09:56;;;;;;;;;;;16.10;99.90;;;;;;5063961;28;20042;-80
2022/09/22 12:12:23;;;;;;;8.50;3.20;;;16.10;99.90;;;;;;5066892;28;20412;-80
2022/09/22 12:15:34;;;;;;;7.13;3.85;;;16.10;99.90;;;;;;5044788;28;20044;-80
2022/09/22 12:18:13;;;;;;;6.18;3.20;;;16.10;99.90;;;;;;5069086;28;20388;-79
2022/09/22 12:20:57;;;;;;;6.35;3.25;;;16.00;99.90;;;;;;5083653;28;20036;-80
2022/09/22 12:23:48;;;;;;;4.85;3.05;;;15.90;99.90;;;;;;5084116;28;20050;-80
2022/09/22 12:26:32;;;;;;;5.53;3.00;;;15.90;99.90;;;;;;5061407;28;20058;-80
2022/09/22 12:29:00;;;;;;;6.78;3.50;;;15.80;99.90;;;;;;5070555;28;20153;-81
2022/09/22 12:31:35;;;;;;;6.95;3.20;;;16.10;99.90;;;;;;5080081;28;20036;-80
2022/09/22 12:34:02;;;;;;;5.88;2.65;;;16.00;99.90;;;;;;5058875;28;20043;-80
2022/09/22 12:36:38;;;;;;;6.38;2.83;;;16.10;99.90;;;;;;5058481;28;20126;-80
2022/09/22 12:39:10;;;;;;;;;;;16.30;99.90;;;;;;5056451;28;20052;-80
2022/09/22 12:41:48;;;;;;;6.10;2.72;;;16.30;99.90;;;;;;5076805;28;19963;-80
2022/09/22 12:44:26;;;;;;;5.20;2.70;;;16.50;99.90;;;;;;5066703;28;20053;-80
2022/09/22 12:47:00;;;;;;;5.10;2.58;;;16.50;99.90;;;;;;5063255;28;20071;-80
2022/09/22 12:49:26;;;;;;;4.78;2.60;;;16.60;99.90;;;;;;5058166;28;20039;-80
2022/09/22 12:51:52;;;;;;;5.43;2.40;;;16.70;99.70;;;;;;5046104;28;20079;-79
2022/09/22 12:54:21;;;;;;;6.30;2.78;;;16.80;99.50;;;;;;5044336;28;20072;-79
2022/09/22 12:56:58;;;;;;;7.60;2.72;;;16.70;98.80;;;;;;5054435;28;20047;-80
2022/09/22 12:59:36;;;;;;;6.70;2.78;;;16.80;98.50;;;;;;5059339;28;20072;-80
2022/09/22 13:02:17;;;;;;;5.60;2.72;;;16.80;98.60;;;;;;5073005;28;20557;-80
2022/09/22 13:04:54;;;;;;;3.70;2.28;;;16.90;98.30;;;;;;5072224;28;20112;-81
2022/09/22 13:07:32;;;;;;;5.75;2.25;;;16.90;98.60;;;;;;5058401;28;20123;-80
2022/09/22 13:10:20;;;;;;;5.40;2.95;;;16.90;98.50;;;;;;5067487;28;20555;-81
2022/09/22 13:13:04;;;;;;;5.25;2.90;;;16.90;98.00;;;;;;5083801;28;20500;-80
2022/09/22 13:15:50;;;;;;;6.18;2.22;;;17.00;98.70;;;;;;5067891;28;20047;-80
2022/09/22 13:18:31;;;;;;;5.55;2.50;;;17.00;98.70;;;;;;5076122;28;20067;-81
2022/09/22 13:20:58;;;;;;;5.63;2.65;;;17.00;98.80;;;;;;5071147;28;20036;-80
2022/09/22 13:23:25;;;;;;;4.22;2.63;;;17.10;99.20;;;;;;5061209;28;20042;-81
2022/09/22 13:25:51;;;;;;;4.35;1.98;;;17.20;98.80;;;;;;5064835;28;20039;-80
2022/09/22 13:28:19;;;;;;;5.45;2.40;;;17.30;98.10;;;;;;5053711;28;20404;-80
2022/09/22 13:30:59;;;;;;;8.90;2.72;;;17.50;97.70;;;;;;5074679;28;20433;-80
2022/09/22 13:33:27;;;;;;;5.43;2.25;;;17.50;97.60;;;;;;5056671;28;20043;-80
2022/09/22 13:36:19;;;;;;;3.55;2.13;;;17.50;97.30;;;;;;5070900;28;20039;-80
2022/09/22 13:38:49;;;;;;;6.28;2.58;;;17.50;97.50;;;;;;5066561;28;20044;-80